sensor_id;sensor_type;location;lat;lon;timestamp;temperature;humidity
11229;DHT22;5671;47.936;8.716;2022-08-11T00:02:27;13.40;59.80
11229;DHT22;5671;47.936;8.716;2022-08-11T00:04:55;13.40;59.30
11229;DHT22;5671;47.936;8.716;2022-08-11T00:07:25;13.40;60.70
11229;DHT22;5671;47.936;8.716;2022-08-11T00:09:53;13.30;61.40
11229;DHT22;5671;47.936;8.716;2022-08-11T00:12:21;13.30;58.20
11229;DHT22;5671;47.936;8.716;2022-08-11T00:14:55;13.30;58.20
11229;DHT22;5671;47.936;8.716;2022-08-11T00:17:27;13.40;60.10
11229;DHT22;5671;47.936;8.716;2022-08-11T00:20:01;13.40;59.10
11229;DHT22;5671;47.936;8.716;2022-08-11T00:22:31;13.40;58.60
11229;DHT22;5671;47.936;8.716;2022-08-11T00:25:01;13.40;57.40
11229;DHT22;5671;47.936;8.716;2022-08-11T00:27:36;13.40;58.60
11229;DHT22;5671;47.936;8.716;2022-08-11T00:30:04;13.40;58.60
11229;DHT22;5671;47.936;8.716;2022-08-11T00:32:32;13.40;58.10
11229;DHT22;5671;47.936;8.716;2022-08-11T00:35:01;13.40;57.70
11229;DHT22;5671;47.936;8.716;2022-08-11T00:37:30;13.40;58.20
11229;DHT22;5671;47.936;8.716;2022-08-11T00:39:58;13.50;59.30
11229;DHT22;5671;47.936;8.716;2022-08-11T00:42:33;13.50;57.20
11229;DHT22;5671;47.936;8.716;2022-08-11T00:45:12;13.50;57.80
11229;DHT22;5671;47.936;8.716;2022-08-11T00:47:58;13.60;58.20
11229;DHT22;5671;47.936;8.716;2022-08-11T00:50:39;13.60;59.00
11229;DHT22;5671;47.936;8.716;2022-08-11T00:53:34;13.60;57.50
11229;DHT22;5671;47.936;8.716;2022-08-11T00:56:18;13.60;57.60
11229;DHT22;5671;47.936;8.716;2022-08-11T01:02:11;13.70;56.20
11229;DHT22;5671;47.936;8.716;2022-08-11T01:07:57;13.70;56.60
11229;DHT22;5671;47.936;8.716;2022-08-11T01:13:54;13.70;56.80
11229;DHT22;5671;47.936;8.716;2022-08-11T01:17:03;13.70;56.30
11229;DHT22;5671;47.936;8.716;2022-08-11T01:20:06;13.70;57.10
11229;DHT22;5671;47.936;8.716;2022-08-11T01:23:13;13.70;56.00
11229;DHT22;5671;47.936;8.716;2022-08-11T01:26:15;13.60;56.70
11229;DHT22;5671;47.936;8.716;2022-08-11T01:29:27;13.60;56.70
11229;DHT22;5671;47.936;8.716;2022-08-11T01:32:31;13.60;56.90
11229;DHT22;5671;47.936;8.716;2022-08-11T01:35:26;13.60;57.20
11229;DHT22;5671;47.936;8.716;2022-08-11T01:38:26;13.60;58.50
11229;DHT22;5671;47.936;8.716;2022-08-11T01:41:21;13.60;56.90
11229;DHT22;5671;47.936;8.716;2022-08-11T01:47:23;13.50;58.60
11229;DHT22;5671;47.936;8.716;2022-08-11T01:50:15;13.50;59.00
11229;DHT22;5671;47.936;8.716;2022-08-11T01:53:02;13.50;58.40
11229;DHT22;5671;47.936;8.716;2022-08-11T01:55:39;13.40;58.90
11229;DHT22;5671;47.936;8.716;2022-08-11T01:58:28;13.40;59.20
11229;DHT22;5671;47.936;8.716;2022-08-11T02:01:09;13.40;57.00
11229;DHT22;5671;47.936;8.716;2022-08-11T02:03:46;13.30;58.00
11229;DHT22;5671;47.936;8.716;2022-08-11T02:06:23;13.30;59.40
11229;DHT22;5671;47.936;8.716;2022-08-11T02:09:24;13.30;58.40
11229;DHT22;5671;47.936;8.716;2022-08-11T02:11:58;13.20;58.30
11229;DHT22;5671;47.936;8.716;2022-08-11T02:14:30;13.20;57.90
11229;DHT22;5671;47.936;8.716;2022-08-11T02:17:13;13.20;57.80
11229;DHT22;5671;47.936;8.716;2022-08-11T02:19:48;13.10;58.20
11229;DHT22;5671;47.936;8.716;2022-08-11T02:22:41;13.10;58.40
11229;DHT22;5671;47.936;8.716;2022-08-11T02:25:36;13.10;59.60
11229;DHT22;5671;47.936;8.716;2022-08-11T02:28:06;13.00;60.70
11229;DHT22;5671;47.936;8.716;2022-08-11T02:30:38;13.00;59.30
11229;DHT22;5671;47.936;8.716;2022-08-11T02:33:20;13.00;58.80
11229;DHT22;5671;47.936;8.716;2022-08-11T02:38:44;13.00;60.80
11229;DHT22;5671;47.936;8.716;2022-08-11T02:41:20;12.90;59.10
11229;DHT22;5671;47.936;8.716;2022-08-11T02:44:27;12.90;59.80
11229;DHT22;5671;47.936;8.716;2022-08-11T02:47:02;12.90;59.50
11229;DHT22;5671;47.936;8.716;2022-08-11T02:49:41;12.90;61.10
11229;DHT22;5671;47.936;8.716;2022-08-11T02:52:24;12.90;61.20
11229;DHT22;5671;47.936;8.716;2022-08-11T02:55:05;12.90;59.90
11229;DHT22;5671;47.936;8.716;2022-08-11T02:57:40;12.90;60.10
11229;DHT22;5671;47.936;8.716;2022-08-11T03:00:10;12.90;60.30
11229;DHT22;5671;47.936;8.716;2022-08-11T03:02:48;12.90;61.00
11229;DHT22;5671;47.936;8.716;2022-08-11T03:05:44;12.90;59.10
11229;DHT22;5671;47.936;8.716;2022-08-11T03:08:35;13.00;60.50
11229;DHT22;5671;47.936;8.716;2022-08-11T03:11:11;12.90;60.20
11229;DHT22;5671;47.936;8.716;2022-08-11T03:14:11;12.90;61.10
11229;DHT22;5671;47.936;8.716;2022-08-11T03:17:04;12.90;61.30
11229;DHT22;5671;47.936;8.716;2022-08-11T03:19:38;13.00;59.40
11229;DHT22;5671;47.936;8.716;2022-08-11T03:22:16;13.00;60.20
11229;DHT22;5671;47.936;8.716;2022-08-11T03:24:55;13.00;60.50
11229;DHT22;5671;47.936;8.716;2022-08-11T03:27:38;13.00;61.20
11229;DHT22;5671;47.936;8.716;2022-08-11T03:30:13;13.00;60.90
11229;DHT22;5671;47.936;8.716;2022-08-11T03:33:02;13.00;61.10
11229;DHT22;5671;47.936;8.716;2022-08-11T03:35:58;13.00;60.20
11229;DHT22;5671;47.936;8.716;2022-08-11T03:38:41;13.00;61.40
11229;DHT22;5671;47.936;8.716;2022-08-11T03:41:19;13.00;61.50
11229;DHT22;5671;47.936;8.716;2022-08-11T03:44:17;13.00;61.20
11229;DHT22;5671;47.936;8.716;2022-08-11T03:47:02;13.00;61.10
11229;DHT22;5671;47.936;8.716;2022-08-11T03:49:43;13.00;58.40
11229;DHT22;5671;47.936;8.716;2022-08-11T03:52:15;13.00;61.50
11229;DHT22;5671;47.936;8.716;2022-08-11T03:54:54;13.00;60.10
11229;DHT22;5671;47.936;8.716;2022-08-11T03:57:56;13.00;62.60
11229;DHT22;5671;47.936;8.716;2022-08-11T04:03:56;13.00;60.60
11229;DHT22;5671;47.936;8.716;2022-08-11T04:10:09;13.00;61.90
11229;DHT22;5671;47.936;8.716;2022-08-11T04:13:24;13.00;59.70
11229;DHT22;5671;47.936;8.716;2022-08-11T04:16:09;13.00;60.10
11229;DHT22;5671;47.936;8.716;2022-08-11T04:19:16;13.00;61.40
11229;DHT22;5671;47.936;8.716;2022-08-11T04:22:16;12.90;61.80
11229;DHT22;5671;47.936;8.716;2022-08-11T04:25:10;13.00;61.50
11229;DHT22;5671;47.936;8.716;2022-08-11T04:28:23;13.00;62.30
11229;DHT22;5671;47.936;8.716;2022-08-11T04:31:08;13.00;61.80
11229;DHT22;5671;47.936;8.716;2022-08-11T04:33:53;13.00;61.90
11229;DHT22;5671;47.936;8.716;2022-08-11T04:36:46;13.00;62.40
11229;DHT22;5671;47.936;8.716;2022-08-11T04:49:44;13.00;62.00
11229;DHT22;5671;47.936;8.716;2022-08-11T04:53:09;13.00;60.80
11229;DHT22;5671;47.936;8.716;2022-08-11T04:56:08;13.00;62.50
11229;DHT22;5671;47.936;8.716;2022-08-11T05:05:22;13.10;61.50
11229;DHT22;5671;47.936;8.716;2022-08-11T05:08:27;13.10;62.40
11229;DHT22;5671;47.936;8.716;2022-08-11T05:14:19;13.10;62.40
11229;DHT22;5671;47.936;8.716;2022-08-11T05:17:11;13.20;61.40
11229;DHT22;5671;47.936;8.716;2022-08-11T05:20:01;13.20;62.40
11229;DHT22;5671;47.936;8.716;2022-08-11T05:22:48;13.30;63.00
11229;DHT22;5671;47.936;8.716;2022-08-11T05:25:35;13.30;62.30
11229;DHT22;5671;47.936;8.716;2022-08-11T05:28:30;13.40;62.00
11229;DHT22;5671;47.936;8.716;2022-08-11T05:31:16;13.40;62.90
11229;DHT22;5671;47.936;8.716;2022-08-11T05:34:08;13.40;61.80
11229;DHT22;5671;47.936;8.716;2022-08-11T05:36:56;13.50;63.00
11229;DHT22;5671;47.936;8.716;2022-08-11T05:39:28;13.50;63.60
11229;DHT22;5671;47.936;8.716;2022-08-11T05:42:16;13.60;62.00
11229;DHT22;5671;47.936;8.716;2022-08-11T05:45:10;13.70;61.40
11229;DHT22;5671;47.936;8.716;2022-08-11T05:47:55;13.80;62.00
11229;DHT22;5671;47.936;8.716;2022-08-11T05:50:40;14.00;61.80
11229;DHT22;5671;47.936;8.716;2022-08-11T05:53:26;14.10;60.30
11229;DHT22;5671;47.936;8.716;2022-08-11T05:56:11;14.30;59.70
11229;DHT22;5671;47.936;8.716;2022-08-11T05:58:48;14.40;60.30
11229;DHT22;5671;47.936;8.716;2022-08-11T06:01:21;14.60;60.60
11229;DHT22;5671;47.936;8.716;2022-08-11T06:03:51;14.70;59.40
11229;DHT22;5671;47.936;8.716;2022-08-11T06:06:37;14.90;59.50
11229;DHT22;5671;47.936;8.716;2022-08-11T06:09:06;15.10;58.80
11229;DHT22;5671;47.936;8.716;2022-08-11T06:11:36;15.20;57.50
11229;DHT22;5671;47.936;8.716;2022-08-11T06:14:07;15.40;56.90
11229;DHT22;5671;47.936;8.716;2022-08-11T06:16:40;15.50;56.80
11229;DHT22;5671;47.936;8.716;2022-08-11T06:19:08;15.70;55.90
11229;DHT22;5671;47.936;8.716;2022-08-11T06:21:44;16.00;55.80
11229;DHT22;5671;47.936;8.716;2022-08-11T06:24:12;16.20;55.10
11229;DHT22;5671;47.936;8.716;2022-08-11T06:26:48;16.30;54.20
11229;DHT22;5671;47.936;8.716;2022-08-11T06:29:20;16.40;54.40
11229;DHT22;5671;47.936;8.716;2022-08-11T06:31:52;16.40;54.30
11229;DHT22;5671;47.936;8.716;2022-08-11T06:34:33;16.50;53.70
11229;DHT22;5671;47.936;8.716;2022-08-11T06:37:14;16.50;53.40
11229;DHT22;5671;47.936;8.716;2022-08-11T06:39:48;16.60;54.40
11229;DHT22;5671;47.936;8.716;2022-08-11T06:42:43;16.70;54.40
11229;DHT22;5671;47.936;8.716;2022-08-11T06:45:27;16.70;54.00
11229;DHT22;5671;47.936;8.716;2022-08-11T06:47:55;16.80;54.40
11229;DHT22;5671;47.936;8.716;2022-08-11T06:50:26;16.90;53.60
11229;DHT22;5671;47.936;8.716;2022-08-11T06:53:16;17.00;53.00
11229;DHT22;5671;47.936;8.716;2022-08-11T06:55:45;17.00;53.00
11229;DHT22;5671;47.936;8.716;2022-08-11T06:58:32;17.10;53.10
11229;DHT22;5671;47.936;8.716;2022-08-11T07:01:36;17.20;54.40
11229;DHT22;5671;47.936;8.716;2022-08-11T07:04:12;17.30;53.40
11229;DHT22;5671;47.936;8.716;2022-08-11T07:06:56;17.40;53.60
11229;DHT22;5671;47.936;8.716;2022-08-11T07:10:39;17.40;52.80
11229;DHT22;5671;47.936;8.716;2022-08-11T07:13:27;17.50;52.20
11229;DHT22;5671;47.936;8.716;2022-08-11T07:16:16;17.60;52.10
11229;DHT22;5671;47.936;8.716;2022-08-11T07:18:46;17.70;52.40
11229;DHT22;5671;47.936;8.716;2022-08-11T07:21:33;17.80;51.60
11229;DHT22;5671;47.936;8.716;2022-08-11T07:24:29;17.90;52.10
11229;DHT22;5671;47.936;8.716;2022-08-11T07:27:18;18.00;51.40
11229;DHT22;5671;47.936;8.716;2022-08-11T07:30:07;18.10;51.80
11229;DHT22;5671;47.936;8.716;2022-08-11T07:32:39;18.10;51.10
11229;DHT22;5671;47.936;8.716;2022-08-11T07:35:11;18.20;50.80
11229;DHT22;5671;47.936;8.716;2022-08-11T07:37:41;18.30;51.10
11229;DHT22;5671;47.936;8.716;2022-08-11T07:40:19;18.40;51.70
11229;DHT22;5671;47.936;8.716;2022-08-11T07:42:48;18.50;51.00
11229;DHT22;5671;47.936;8.716;2022-08-11T07:45:16;18.50;50.50
11229;DHT22;5671;47.936;8.716;2022-08-11T07:48:01;18.70;49.70
11229;DHT22;5671;47.936;8.716;2022-08-11T07:50:48;18.70;50.60
11229;DHT22;5671;47.936;8.716;2022-08-11T07:53:33;18.80;50.70
11229;DHT22;5671;47.936;8.716;2022-08-11T07:56:03;18.90;51.30
11229;DHT22;5671;47.936;8.716;2022-08-11T07:58:33;19.00;50.90
11229;DHT22;5671;47.936;8.716;2022-08-11T08:01:20;19.10;49.80
11229;DHT22;5671;47.936;8.716;2022-08-11T08:04:06;19.20;50.40
11229;DHT22;5671;47.936;8.716;2022-08-11T08:06:53;19.30;51.00
11229;DHT22;5671;47.936;8.716;2022-08-11T08:09:38;19.40;50.50
11229;DHT22;5671;47.936;8.716;2022-08-11T08:12:24;19.60;49.20
11229;DHT22;5671;47.936;8.716;2022-08-11T08:15:12;19.70;49.30
11229;DHT22;5671;47.936;8.716;2022-08-11T08:17:58;19.70;49.10
11229;DHT22;5671;47.936;8.716;2022-08-11T08:20:29;19.90;49.70
11229;DHT22;5671;47.936;8.716;2022-08-11T08:23:01;19.90;48.40
11229;DHT22;5671;47.936;8.716;2022-08-11T08:25:31;20.00;49.40
11229;DHT22;5671;47.936;8.716;2022-08-11T08:27:59;20.10;48.70
11229;DHT22;5671;47.936;8.716;2022-08-11T08:30:28;20.20;49.00
11229;DHT22;5671;47.936;8.716;2022-08-11T08:33:13;20.30;48.40
11229;DHT22;5671;47.936;8.716;2022-08-11T08:35:41;20.40;47.80
11229;DHT22;5671;47.936;8.716;2022-08-11T08:38:11;20.50;47.90
11229;DHT22;5671;47.936;8.716;2022-08-11T08:40:41;20.50;48.60
11229;DHT22;5671;47.936;8.716;2022-08-11T08:43:13;20.60;48.00
11229;DHT22;5671;47.936;8.716;2022-08-11T08:45:42;20.80;48.10
11229;DHT22;5671;47.936;8.716;2022-08-11T08:48:12;20.90;48.20
11229;DHT22;5671;47.936;8.716;2022-08-11T08:50:43;20.90;47.10
11229;DHT22;5671;47.936;8.716;2022-08-11T08:53:34;21.00;47.40
11229;DHT22;5671;47.936;8.716;2022-08-11T08:56:02;21.10;47.90
11229;DHT22;5671;47.936;8.716;2022-08-11T08:58:30;21.10;47.50
11229;DHT22;5671;47.936;8.716;2022-08-11T09:00:59;21.30;46.40
11229;DHT22;5671;47.936;8.716;2022-08-11T09:03:27;21.30;46.80
11229;DHT22;5671;47.936;8.716;2022-08-11T09:05:55;21.40;46.10
11229;DHT22;5671;47.936;8.716;2022-08-11T09:08:23;21.50;45.80
11229;DHT22;5671;47.936;8.716;2022-08-11T09:10:55;21.50;46.60
11229;DHT22;5671;47.936;8.716;2022-08-11T09:13:41;21.50;46.80
11229;DHT22;5671;47.936;8.716;2022-08-11T09:16:11;21.60;45.50
11229;DHT22;5671;47.936;8.716;2022-08-11T09:18:40;21.60;46.70
11229;DHT22;5671;47.936;8.716;2022-08-11T09:21:11;21.70;45.70
11229;DHT22;5671;47.936;8.716;2022-08-11T09:23:40;21.70;45.90
11229;DHT22;5671;47.936;8.716;2022-08-11T09:26:28;21.80;46.10
11229;DHT22;5671;47.936;8.716;2022-08-11T09:29:13;21.90;45.50
11229;DHT22;5671;47.936;8.716;2022-08-11T09:31:41;22.00;45.90
11229;DHT22;5671;47.936;8.716;2022-08-11T09:34:09;22.10;45.50
11229;DHT22;5671;47.936;8.716;2022-08-11T09:36:37;22.30;46.10
11229;DHT22;5671;47.936;8.716;2022-08-11T09:39:22;22.50;45.00
11229;DHT22;5671;47.936;8.716;2022-08-11T09:42:09;22.70;44.90
11229;DHT22;5671;47.936;8.716;2022-08-11T09:44:37;22.90;42.90
11229;DHT22;5671;47.936;8.716;2022-08-11T09:47:19;22.90;43.30
11229;DHT22;5671;47.936;8.716;2022-08-11T09:49:51;23.00;43.50
11229;DHT22;5671;47.936;8.716;2022-08-11T09:52:19;23.10;44.60
11229;DHT22;5671;47.936;8.716;2022-08-11T09:54:48;23.10;43.60
11229;DHT22;5671;47.936;8.716;2022-08-11T09:57:19;23.10;44.10
11229;DHT22;5671;47.936;8.716;2022-08-11T10:00:06;23.20;43.80
11229;DHT22;5671;47.936;8.716;2022-08-11T10:02:38;23.30;44.00
11229;DHT22;5671;47.936;8.716;2022-08-11T10:05:06;23.40;43.00
11229;DHT22;5671;47.936;8.716;2022-08-11T10:07:52;23.50;43.50
11229;DHT22;5671;47.936;8.716;2022-08-11T10:10:21;23.50;42.90
11229;DHT22;5671;47.936;8.716;2022-08-11T10:12:53;23.60;43.00
11229;DHT22;5671;47.936;8.716;2022-08-11T10:15:22;23.70;42.80
11229;DHT22;5671;47.936;8.716;2022-08-11T10:18:05;23.70;42.60
11229;DHT22;5671;47.936;8.716;2022-08-11T10:20:51;23.80;41.70
11229;DHT22;5671;47.936;8.716;2022-08-11T10:23:20;23.90;42.40
11229;DHT22;5671;47.936;8.716;2022-08-11T10:26:06;24.10;42.30
11229;DHT22;5671;47.936;8.716;2022-08-11T10:28:53;24.20;41.00
11229;DHT22;5671;47.936;8.716;2022-08-11T10:31:21;24.30;40.40
11229;DHT22;5671;47.936;8.716;2022-08-11T10:34:07;24.50;41.20
11229;DHT22;5671;47.936;8.716;2022-08-11T10:36:37;25.00;40.50
11229;DHT22;5671;47.936;8.716;2022-08-11T10:39:10;25.50;39.80
11229;DHT22;5671;47.936;8.716;2022-08-11T10:41:43;26.10;38.40
11229;DHT22;5671;47.936;8.716;2022-08-11T10:44:30;26.70;38.00
11229;DHT22;5671;47.936;8.716;2022-08-11T10:47:00;27.30;37.40
11229;DHT22;5671;47.936;8.716;2022-08-11T10:49:45;27.90;37.70
11229;DHT22;5671;47.936;8.716;2022-08-11T10:52:34;28.70;35.50
11229;DHT22;5671;47.936;8.716;2022-08-11T10:55:19;29.10;34.50
11229;DHT22;5671;47.936;8.716;2022-08-11T10:58:04;29.50;33.00
11229;DHT22;5671;47.936;8.716;2022-08-11T11:00:51;30.00;33.00
11229;DHT22;5671;47.936;8.716;2022-08-11T11:03:21;30.50;33.70
11229;DHT22;5671;47.936;8.716;2022-08-11T11:05:54;30.80;32.70
11229;DHT22;5671;47.936;8.716;2022-08-11T11:08:27;31.20;32.20
11229;DHT22;5671;47.936;8.716;2022-08-11T11:11:13;31.40;29.70
11229;DHT22;5671;47.936;8.716;2022-08-11T11:13:45;31.50;30.80
11229;DHT22;5671;47.936;8.716;2022-08-11T11:16:32;31.70;29.80
11229;DHT22;5671;47.936;8.716;2022-08-11T11:19:22;31.40;29.70
11229;DHT22;5671;47.936;8.716;2022-08-11T11:21:53;31.80;30.70
11229;DHT22;5671;47.936;8.716;2022-08-11T11:24:44;31.90;31.10
11229;DHT22;5671;47.936;8.716;2022-08-11T11:27:27;31.90;31.10
11229;DHT22;5671;47.936;8.716;2022-08-11T11:30:04;32.00;30.10
11229;DHT22;5671;47.936;8.716;2022-08-11T11:32:41;32.20;30.70
11229;DHT22;5671;47.936;8.716;2022-08-11T11:35:25;32.70;30.60
11229;DHT22;5671;47.936;8.716;2022-08-11T11:37:56;33.00;30.50
11229;DHT22;5671;47.936;8.716;2022-08-11T11:40:24;33.30;30.20
11229;DHT22;5671;47.936;8.716;2022-08-11T11:42:54;33.30;29.40
11229;DHT22;5671;47.936;8.716;2022-08-11T11:45:23;33.20;29.00
11229;DHT22;5671;47.936;8.716;2022-08-11T11:47:54;33.30;27.90
11229;DHT22;5671;47.936;8.716;2022-08-11T11:50:23;33.00;28.70
11229;DHT22;5671;47.936;8.716;2022-08-11T11:52:51;33.00;29.40
11229;DHT22;5671;47.936;8.716;2022-08-11T11:55:20;33.00;28.40
11229;DHT22;5671;47.936;8.716;2022-08-11T11:57:49;33.10;29.10
11229;DHT22;5671;47.936;8.716;2022-08-11T12:00:34;33.40;29.80
11229;DHT22;5671;47.936;8.716;2022-08-11T12:03:20;33.50;28.60
11229;DHT22;5671;47.936;8.716;2022-08-11T12:05:48;33.70;28.20
11229;DHT22;5671;47.936;8.716;2022-08-11T12:08:19;33.80;28.80
11229;DHT22;5671;47.936;8.716;2022-08-11T12:10:49;34.20;26.70
11229;DHT22;5671;47.936;8.716;2022-08-11T12:13:37;34.60;28.10
11229;DHT22;5671;47.936;8.716;2022-08-11T12:16:07;35.00;27.50
11229;DHT22;5671;47.936;8.716;2022-08-11T12:18:36;34.60;27.80
11229;DHT22;5671;47.936;8.716;2022-08-11T12:21:05;34.40;28.30
11229;DHT22;5671;47.936;8.716;2022-08-11T12:23:35;34.50;27.80
11229;DHT22;5671;47.936;8.716;2022-08-11T12:26:20;34.80;28.10
11229;DHT22;5671;47.936;8.716;2022-08-11T12:29:07;34.70;27.30
11229;DHT22;5671;47.936;8.716;2022-08-11T12:31:37;34.60;28.80
11229;DHT22;5671;47.936;8.716;2022-08-11T12:34:08;34.50;27.90
11229;DHT22;5671;47.936;8.716;2022-08-11T12:36:36;34.50;27.20
11229;DHT22;5671;47.936;8.716;2022-08-11T12:39:06;34.60;27.90
11229;DHT22;5671;47.936;8.716;2022-08-11T12:41:35;34.40;28.10
11229;DHT22;5671;47.936;8.716;2022-08-11T12:44:24;34.70;28.60
11229;DHT22;5671;47.936;8.716;2022-08-11T12:47:10;34.70;28.30
11229;DHT22;5671;47.936;8.716;2022-08-11T12:49:42;34.90;28.00
11229;DHT22;5671;47.936;8.716;2022-08-11T12:52:44;35.30;27.80
11229;DHT22;5671;47.936;8.716;2022-08-11T12:55:16;35.30;27.60
11229;DHT22;5671;47.936;8.716;2022-08-11T12:58:09;35.20;27.80
11229;DHT22;5671;47.936;8.716;2022-08-11T13:00:42;35.20;26.90
11229;DHT22;5671;47.936;8.716;2022-08-11T13:03:27;35.10;27.40
11229;DHT22;5671;47.936;8.716;2022-08-11T13:06:13;34.80;27.00
11229;DHT22;5671;47.936;8.716;2022-08-11T13:08:41;34.60;27.70
11229;DHT22;5671;47.936;8.716;2022-08-11T13:11:09;34.70;27.60
11229;DHT22;5671;47.936;8.716;2022-08-11T13:13:54;34.90;27.10
11229;DHT22;5671;47.936;8.716;2022-08-11T13:16:22;34.80;27.10
11229;DHT22;5671;47.936;8.716;2022-08-11T13:18:50;34.70;27.50
11229;DHT22;5671;47.936;8.716;2022-08-11T13:21:20;34.90;26.90
11229;DHT22;5671;47.936;8.716;2022-08-11T13:23:48;34.80;27.30
11229;DHT22;5671;47.936;8.716;2022-08-11T13:26:16;34.90;27.10
11229;DHT22;5671;47.936;8.716;2022-08-11T13:28:45;34.60;27.10
11229;DHT22;5671;47.936;8.716;2022-08-11T13:31:12;34.40;27.30
11229;DHT22;5671;47.936;8.716;2022-08-11T13:33:41;34.70;27.10
11229;DHT22;5671;47.936;8.716;2022-08-11T13:36:09;35.10;27.10
11229;DHT22;5671;47.936;8.716;2022-08-11T13:38:40;35.00;26.40
11229;DHT22;5671;47.936;8.716;2022-08-11T13:41:08;35.00;27.30
11229;DHT22;5671;47.936;8.716;2022-08-11T13:43:50;35.20;26.50
11229;DHT22;5671;47.936;8.716;2022-08-11T13:46:18;35.20;26.50
11229;DHT22;5671;47.936;8.716;2022-08-11T13:48:46;35.20;26.30
11229;DHT22;5671;47.936;8.716;2022-08-11T13:51:13;35.20;27.10
11229;DHT22;5671;47.936;8.716;2022-08-11T13:54:03;35.30;27.10
11229;DHT22;5671;47.936;8.716;2022-08-11T13:56:31;35.50;26.20
11229;DHT22;5671;47.936;8.716;2022-08-11T13:59:00;35.50;26.80
11229;DHT22;5671;47.936;8.716;2022-08-11T14:01:29;35.60;26.30
11229;DHT22;5671;47.936;8.716;2022-08-11T14:04:04;35.70;26.70
11229;DHT22;5671;47.936;8.716;2022-08-11T14:06:32;35.80;26.30
11229;DHT22;5671;47.936;8.716;2022-08-11T14:09:03;35.70;26.10
11229;DHT22;5671;47.936;8.716;2022-08-11T14:11:34;36.10;26.30
11229;DHT22;5671;47.936;8.716;2022-08-11T14:14:25;35.90;26.60
11229;DHT22;5671;47.936;8.716;2022-08-11T14:16:54;35.70;26.40
11229;DHT22;5671;47.936;8.716;2022-08-11T14:19:24;35.70;26.20
11229;DHT22;5671;47.936;8.716;2022-08-11T14:21:59;35.60;27.00
11229;DHT22;5671;47.936;8.716;2022-08-11T14:24:34;35.10;26.10
11229;DHT22;5671;47.936;8.716;2022-08-11T14:27:02;34.90;26.70
11229;DHT22;5671;47.936;8.716;2022-08-11T14:29:31;34.80;27.30
11229;DHT22;5671;47.936;8.716;2022-08-11T14:32:04;34.90;26.20
11229;DHT22;5671;47.936;8.716;2022-08-11T14:34:33;34.70;26.80
11229;DHT22;5671;47.936;8.716;2022-08-11T14:37:07;34.50;26.80
11229;DHT22;5671;47.936;8.716;2022-08-11T14:39:40;34.30;27.40
11229;DHT22;5671;47.936;8.716;2022-08-11T14:42:09;34.30;26.80
11229;DHT22;5671;47.936;8.716;2022-08-11T14:44:58;34.40;27.50
11229;DHT22;5671;47.936;8.716;2022-08-11T14:47:49;34.70;26.70
11229;DHT22;5671;47.936;8.716;2022-08-11T14:53:57;34.60;26.20
11229;DHT22;5671;47.936;8.716;2022-08-11T14:59:57;34.10;25.70
11229;DHT22;5671;47.936;8.716;2022-08-11T15:02:25;34.40;26.00
11229;DHT22;5671;47.936;8.716;2022-08-11T15:05:12;34.80;25.50
11229;DHT22;5671;47.936;8.716;2022-08-11T15:07:40;34.80;26.30
11229;DHT22;5671;47.936;8.716;2022-08-11T15:10:08;35.00;24.50
11229;DHT22;5671;47.936;8.716;2022-08-11T15:12:38;34.60;25.00
11229;DHT22;5671;47.936;8.716;2022-08-11T15:15:12;34.50;25.40
11229;DHT22;5671;47.936;8.716;2022-08-11T15:17:58;34.70;25.40
11229;DHT22;5671;47.936;8.716;2022-08-11T15:20:26;34.30;25.80
11229;DHT22;5671;47.936;8.716;2022-08-11T15:23:12;34.20;25.10
11229;DHT22;5671;47.936;8.716;2022-08-11T15:25:59;33.90;25.30
11229;DHT22;5671;47.936;8.716;2022-08-11T15:28:29;34.00;25.30
11229;DHT22;5671;47.936;8.716;2022-08-11T15:31:16;34.00;26.50
11229;DHT22;5671;47.936;8.716;2022-08-11T15:34:02;33.90;27.00
11229;DHT22;5671;47.936;8.716;2022-08-11T15:36:49;34.10;26.10
11229;DHT22;5671;47.936;8.716;2022-08-11T15:39:47;34.10;25.90
11229;DHT22;5671;47.936;8.716;2022-08-11T15:42:34;33.90;25.40
11229;DHT22;5671;47.936;8.716;2022-08-11T15:45:23;33.90;26.30
11229;DHT22;5671;47.936;8.716;2022-08-11T15:48:11;34.00;25.90
11229;DHT22;5671;47.936;8.716;2022-08-11T15:50:45;34.00;26.20
11229;DHT22;5671;47.936;8.716;2022-08-11T15:53:19;33.80;27.60
11229;DHT22;5671;47.936;8.716;2022-08-11T15:55:50;33.90;26.60
11229;DHT22;5671;47.936;8.716;2022-08-11T15:58:19;33.60;26.90
11229;DHT22;5671;47.936;8.716;2022-08-11T16:01:19;33.20;26.90
11229;DHT22;5671;47.936;8.716;2022-08-11T16:04:08;33.10;27.10
11229;DHT22;5671;47.936;8.716;2022-08-11T16:06:44;33.00;27.60
11229;DHT22;5671;47.936;8.716;2022-08-11T16:09:17;32.70;28.00
11229;DHT22;5671;47.936;8.716;2022-08-11T16:11:46;32.40;28.50
11229;DHT22;5671;47.936;8.716;2022-08-11T16:14:15;32.20;28.10
11229;DHT22;5671;47.936;8.716;2022-08-11T16:17:02;32.00;28.00
11229;DHT22;5671;47.936;8.716;2022-08-11T16:19:32;31.70;28.20
11229;DHT22;5671;47.936;8.716;2022-08-11T16:22:11;31.60;28.50
11229;DHT22;5671;47.936;8.716;2022-08-11T16:24:40;31.30;28.10
11229;DHT22;5671;47.936;8.716;2022-08-11T16:27:10;31.00;28.00
11229;DHT22;5671;47.936;8.716;2022-08-11T16:29:41;30.80;28.00
11229;DHT22;5671;47.936;8.716;2022-08-11T16:32:10;30.90;28.40
11229;DHT22;5671;47.936;8.716;2022-08-11T16:34:50;30.80;28.70
11229;DHT22;5671;47.936;8.716;2022-08-11T16:37:36;30.80;28.10
11229;DHT22;5671;47.936;8.716;2022-08-11T16:40:22;30.50;28.50
11229;DHT22;5671;47.936;8.716;2022-08-11T16:42:51;30.40;28.20
11229;DHT22;5671;47.936;8.716;2022-08-11T16:45:37;30.20;28.60
11229;DHT22;5671;47.936;8.716;2022-08-11T16:48:23;30.20;29.50
11229;DHT22;5671;47.936;8.716;2022-08-11T16:50:54;30.10;29.30
11229;DHT22;5671;47.936;8.716;2022-08-11T16:53:24;29.70;29.40
11229;DHT22;5671;47.936;8.716;2022-08-11T16:55:52;29.50;30.10
11229;DHT22;5671;47.936;8.716;2022-08-11T16:58:21;29.20;30.00
11229;DHT22;5671;47.936;8.716;2022-08-11T17:01:08;29.00;30.30
11229;DHT22;5671;47.936;8.716;2022-08-11T17:03:45;28.70;30.50
11229;DHT22;5671;47.936;8.716;2022-08-11T17:06:32;28.50;31.00
11229;DHT22;5671;47.936;8.716;2022-08-11T17:09:20;28.30;31.40
11229;DHT22;5671;47.936;8.716;2022-08-11T17:12:07;28.10;31.40
11229;DHT22;5671;47.936;8.716;2022-08-11T17:14:55;27.90;31.20
11229;DHT22;5671;47.936;8.716;2022-08-11T17:17:28;27.60;31.20
11229;DHT22;5671;47.936;8.716;2022-08-11T17:19:59;27.40;31.70
11229;DHT22;5671;47.936;8.716;2022-08-11T17:22:30;27.20;32.40
11229;DHT22;5671;47.936;8.716;2022-08-11T17:25:15;27.10;32.70
11229;DHT22;5671;47.936;8.716;2022-08-11T17:27:43;26.90;33.00
11229;DHT22;5671;47.936;8.716;2022-08-11T17:30:12;26.80;33.30
11229;DHT22;5671;47.936;8.716;2022-08-11T17:32:41;26.70;33.10
11229;DHT22;5671;47.936;8.716;2022-08-11T17:35:28;26.50;33.00
11229;DHT22;5671;47.936;8.716;2022-08-11T17:38:03;26.30;33.20
11229;DHT22;5671;47.936;8.716;2022-08-11T17:40:34;26.20;33.40
11229;DHT22;5671;47.936;8.716;2022-08-11T17:43:06;26.00;33.30
11229;DHT22;5671;47.936;8.716;2022-08-11T17:45:53;25.90;33.60
11229;DHT22;5671;47.936;8.716;2022-08-11T17:48:42;25.80;33.20
11229;DHT22;5671;47.936;8.716;2022-08-11T17:51:11;25.70;33.50